This is the latest recevied weather packets stored in our database for station/object K4QXN. If no packets are shown the sender has not sent any weather packets the latest 10 day(s).
| Time | Temp. | Humidity | Pressure | Rain* | Wind** | Luminosity | Snow |
|---|---|---|---|---|---|---|---|
| 1777582054 | 22.78° C | 55% | 1007.1 hPa | 0 mm | - | - | - |
| 1777581763 | 22.78° C | 55% | 1007.1 hPa | 0 mm | - | - | - |
| 1777581461 | 23.33° C | 56% | 1007.1 hPa | 0 mm | - | - | - |
| 1777581160 | 23.33° C | 55% | 1007.1 hPa | 0 mm | - | - | - |
| 1777580856 | 23.89° C | 53% | 1007.4 hPa | 0 mm | - | - | - |
| 1777544939 | 16.11° C | 88% | 1007.1 hPa | 0 mm | - | - | - |
| 1777544638 | 16.11° C | 89% | 1007.1 hPa | 0 mm | - | - | - |
| 1777544336 | 15.56° C | 90% | 1007.1 hPa | 0 mm | - | - | - |
| 1777544035 | 15.56° C | 91% | 1007.1 hPa | 0 mm | - | - | - |
| 1777543431 | 15.56° C | 94% | 1007.1 hPa | 0 mm | - | - | - |
| 1777542827 | 15° C | 96% | 1007.1 hPa | 0 mm | - | - | - |
| 1777542525 | 15° C | 97% | 1007.1 hPa | 0 mm | - | - | - |
| 1777542223 | 15° C | 97% | 1006.7 hPa | 0 mm | - | - | - |
| 1777541922 | 15° C | 97% | 1006.7 hPa | 0 mm | - | - | - |
| 1777541620 | 15° C | 97% | 1006.7 hPa | 0 mm | - | - | - |
| 1777541318 | 15° C | 97% | 1007.1 hPa | 0 mm | - | - | - |
| 1777541016 | 15° C | 97% | 1007.1 hPa | 0 mm | - | - | - |
| 1777540715 | 15° C | 97% | 1007.1 hPa | 0 mm | - | - | - |
| 1777540413 | 15° C | 97% | 1007.4 hPa | 0 mm | - | - | - |
| 1777540111 | 14.44° C | 97% | 1007.1 hPa | 0 mm | - | - | - |
| 1777539810 | 14.44° C | 97% | 1007.1 hPa | 0 mm | - | - | - |
| 1777539508 | 14.44° C | 97% | 1007.4 hPa | 0 mm | - | - | - |
| 1777538904 | 14.44° C | 97% | 1007.4 hPa | 0 mm | - | - | - |
| 1777538602 | 15° C | 97% | 1007.4 hPa | 0 mm | - | - | - |
| 1777538301 | 15° C | 97% | 1007.4 hPa | 0 mm | - | - | - |
* Rain latest hour (hover to see other rain measurements)
** Current wind speed in m/s (hover to see current wind gust speed)